sensor_id;sensor_type;location;lat;lon;timestamp;P1;durP1;ratioP1;P2;durP2;ratioP2
17598;SDS011;8918;52.092;5.232;2023-06-24T00:01:27;7.47;;;6.60;;
17598;SDS011;8918;52.092;5.232;2023-06-24T00:03:53;8.43;;;6.78;;
17598;SDS011;8918;52.092;5.232;2023-06-24T00:06:19;7.82;;;7.03;;
17598;SDS011;8918;52.092;5.232;2023-06-24T00:08:45;7.95;;;6.80;;
17598;SDS011;8918;52.092;5.232;2023-06-24T00:11:12;8.30;;;6.38;;
17598;SDS011;8918;52.092;5.232;2023-06-24T00:13:38;7.60;;;6.72;;
17598;SDS011;8918;52.092;5.232;2023-06-24T00:16:04;8.43;;;6.90;;
17598;SDS011;8918;52.092;5.232;2023-06-24T00:18:31;7.60;;;6.80;;
17598;SDS011;8918;52.092;5.232;2023-06-24T00:20:57;9.00;;;6.35;;
17598;SDS011;8918;52.092;5.232;2023-06-24T00:23:23;7.20;;;6.50;;
17598;SDS011;8918;52.092;5.232;2023-06-24T00:25:52;9.13;;;6.60;;
17598;SDS011;8918;52.092;5.232;2023-06-24T00:28:18;7.28;;;6.57;;
17598;SDS011;8918;52.092;5.232;2023-06-24T00:30:44;7.57;;;6.78;;
17598;SDS011;8918;52.092;5.232;2023-06-24T00:33:09;9.43;;;6.75;;
17598;SDS011;8918;52.092;5.232;2023-06-24T00:35:38;7.72;;;6.72;;
17598;SDS011;8918;52.092;5.232;2023-06-24T00:38:04;9.48;;;7.28;;
17598;SDS011;8918;52.092;5.232;2023-06-24T00:40:29;9.60;;;7.35;;
17598;SDS011;8918;52.092;5.232;2023-06-24T00:42:55;10.93;;;7.38;;
17598;SDS011;8918;52.092;5.232;2023-06-24T00:45:24;7.82;;;7.00;;
17598;SDS011;8918;52.092;5.232;2023-06-24T00:47:50;8.45;;;6.80;;
17598;SDS011;8918;52.092;5.232;2023-06-24T00:50:16;7.72;;;6.95;;
17598;SDS011;8918;52.092;5.232;2023-06-24T00:52:42;10.88;;;7.30;;
17598;SDS011;8918;52.092;5.232;2023-06-24T00:55:09;7.70;;;6.88;;
17598;SDS011;8918;52.092;5.232;2023-06-24T00:57:37;8.82;;;7.20;;
17598;SDS011;8918;52.092;5.232;2023-06-24T01:00:04;7.75;;;6.95;;
17598;SDS011;8918;52.092;5.232;2023-06-24T01:02:38;8.05;;;6.72;;
17598;SDS011;8918;52.092;5.232;2023-06-24T01:05:03;10.65;;;7.10;;
17598;SDS011;8918;52.092;5.232;2023-06-24T01:07:33;8.20;;;7.00;;
17598;SDS011;8918;52.092;5.232;2023-06-24T01:10:00;7.20;;;6.50;;
17598;SDS011;8918;52.092;5.232;2023-06-24T01:12:36;7.47;;;6.70;;
17598;SDS011;8918;52.092;5.232;2023-06-24T01:15:04;10.82;;;7.10;;
17598;SDS011;8918;52.092;5.232;2023-06-24T01:20:27;8.32;;;7.30;;
17598;SDS011;8918;52.092;5.232;2023-06-24T01:31:34;8.25;;;7.38;;
17598;SDS011;8918;52.092;5.232;2023-06-24T01:34:06;7.90;;;7.00;;
17598;SDS011;8918;52.092;5.232;2023-06-24T01:36:37;7.75;;;6.88;;
17598;SDS011;8918;52.092;5.232;2023-06-24T01:39:08;9.38;;;7.70;;
17598;SDS011;8918;52.092;5.232;2023-06-24T01:41:36;8.52;;;7.65;;
17598;SDS011;8918;52.092;5.232;2023-06-24T01:44:07;8.68;;;7.43;;
17598;SDS011;8918;52.092;5.232;2023-06-24T01:46:35;9.35;;;7.57;;
17598;SDS011;8918;52.092;5.232;2023-06-24T01:49:02;8.18;;;7.35;;
17598;SDS011;8918;52.092;5.232;2023-06-24T01:51:31;9.60;;;7.68;;
17598;SDS011;8918;52.092;5.232;2023-06-24T01:54:04;9.00;;;6.90;;
17598;SDS011;8918;52.092;5.232;2023-06-24T01:56:32;8.38;;;7.47;;
17598;SDS011;8918;52.092;5.232;2023-06-24T01:59:01;8.35;;;7.50;;
17598;SDS011;8918;52.092;5.232;2023-06-24T02:01:29;9.60;;;7.50;;
17598;SDS011;8918;52.092;5.232;2023-06-24T02:03:57;9.02;;;7.50;;
17598;SDS011;8918;52.092;5.232;2023-06-24T02:06:25;8.40;;;6.75;;
17598;SDS011;8918;52.092;5.232;2023-06-24T02:08:53;9.13;;;7.25;;
17598;SDS011;8918;52.092;5.232;2023-06-24T02:11:21;8.57;;;7.05;;
17598;SDS011;8918;52.092;5.232;2023-06-24T02:13:48;8.32;;;6.95;;
17598;SDS011;8918;52.092;5.232;2023-06-24T02:16:15;8.25;;;7.18;;
17598;SDS011;8918;52.092;5.232;2023-06-24T02:18:43;8.35;;;6.82;;
17598;SDS011;8918;52.092;5.232;2023-06-24T02:21:09;8.40;;;7.05;;
17598;SDS011;8918;52.092;5.232;2023-06-24T02:23:36;7.68;;;6.82;;
17598;SDS011;8918;52.092;5.232;2023-06-24T02:26:03;8.43;;;7.22;;
17598;SDS011;8918;52.092;5.232;2023-06-24T02:28:31;8.10;;;7.28;;
17598;SDS011;8918;52.092;5.232;2023-06-24T02:30:58;8.23;;;7.43;;
17598;SDS011;8918;52.092;5.232;2023-06-24T02:33:24;7.97;;;7.18;;
17598;SDS011;8918;52.092;5.232;2023-06-24T02:35:51;9.35;;;6.75;;
17598;SDS011;8918;52.092;5.232;2023-06-24T02:38:17;8.32;;;7.35;;
17598;SDS011;8918;52.092;5.232;2023-06-24T02:40:44;8.27;;;7.10;;
17598;SDS011;8918;52.092;5.232;2023-06-24T02:43:10;8.23;;;7.43;;
17598;SDS011;8918;52.092;5.232;2023-06-24T02:45:36;8.45;;;7.53;;
17598;SDS011;8918;52.092;5.232;2023-06-24T02:48:03;8.25;;;7.30;;
17598;SDS011;8918;52.092;5.232;2023-06-24T02:50:30;8.73;;;7.38;;
17598;SDS011;8918;52.092;5.232;2023-06-24T02:52:58;8.63;;;7.50;;
17598;SDS011;8918;52.092;5.232;2023-06-24T02:55:24;7.50;;;6.70;;
17598;SDS011;8918;52.092;5.232;2023-06-24T02:57:50;9.10;;;6.85;;
17598;SDS011;8918;52.092;5.232;2023-06-24T03:00:16;10.50;;;7.03;;
17598;SDS011;8918;52.092;5.232;2023-06-24T03:02:42;7.75;;;6.95;;
17598;SDS011;8918;52.092;5.232;2023-06-24T03:05:10;8.65;;;6.88;;
17598;SDS011;8918;52.092;5.232;2023-06-24T03:07:36;7.68;;;6.90;;
17598;SDS011;8918;52.092;5.232;2023-06-24T03:10:03;7.97;;;6.85;;
17598;SDS011;8918;52.092;5.232;2023-06-24T03:12:30;8.45;;;6.90;;
17598;SDS011;8918;52.092;5.232;2023-06-24T03:14:56;7.95;;;7.15;;
17598;SDS011;8918;52.092;5.232;2023-06-24T03:17:22;8.15;;;7.32;;
17598;SDS011;8918;52.092;5.232;2023-06-24T03:19:49;8.13;;;6.60;;
17598;SDS011;8918;52.092;5.232;2023-06-24T03:22:15;8.15;;;7.32;;
17598;SDS011;8918;52.092;5.232;2023-06-24T03:24:42;7.70;;;6.90;;
17598;SDS011;8918;52.092;5.232;2023-06-24T03:27:07;9.98;;;6.97;;
17598;SDS011;8918;52.092;5.232;2023-06-24T03:29:33;7.80;;;7.00;;
17598;SDS011;8918;52.092;5.232;2023-06-24T03:31:59;7.78;;;6.97;;
17598;SDS011;8918;52.092;5.232;2023-06-24T03:34:24;8.70;;;7.30;;
17598;SDS011;8918;52.092;5.232;2023-06-24T03:36:52;8.38;;;6.93;;
17598;SDS011;8918;52.092;5.232;2023-06-24T03:39:19;9.52;;;7.25;;
17598;SDS011;8918;52.092;5.232;2023-06-24T03:41:45;8.18;;;7.18;;
17598;SDS011;8918;52.092;5.232;2023-06-24T03:44:11;8.05;;;7.25;;
17598;SDS011;8918;52.092;5.232;2023-06-24T03:46:37;8.02;;;7.22;;
17598;SDS011;8918;52.092;5.232;2023-06-24T03:49:02;8.32;;;7.20;;
17598;SDS011;8918;52.092;5.232;2023-06-24T03:51:28;8.88;;;7.97;;
17598;SDS011;8918;52.092;5.232;2023-06-24T03:53:54;10.82;;;9.30;;
17598;SDS011;8918;52.092;5.232;2023-06-24T03:56:19;9.38;;;8.38;;
17598;SDS011;8918;52.092;5.232;2023-06-24T03:58:45;11.05;;;9.23;;
17598;SDS011;8918;52.092;5.232;2023-06-24T04:01:10;10.27;;;9.18;;
17598;SDS011;8918;52.092;5.232;2023-06-24T04:03:36;10.73;;;8.77;;
17598;SDS011;8918;52.092;5.232;2023-06-24T04:06:01;13.45;;;9.60;;
17598;SDS011;8918;52.092;5.232;2023-06-24T04:08:27;10.85;;;9.05;;
17598;SDS011;8918;52.092;5.232;2023-06-24T04:10:56;10.52;;;9.23;;
17598;SDS011;8918;52.092;5.232;2023-06-24T04:13:24;9.07;;;8.07;;
17598;SDS011;8918;52.092;5.232;2023-06-24T04:15:50;10.57;;;7.80;;
17598;SDS011;8918;52.092;5.232;2023-06-24T04:18:16;8.75;;;7.85;;
17598;SDS011;8918;52.092;5.232;2023-06-24T04:20:42;11.05;;;8.65;;
17598;SDS011;8918;52.092;5.232;2023-06-24T04:23:07;10.02;;;8.18;;
17598;SDS011;8918;52.092;5.232;2023-06-24T04:25:35;12.85;;;8.48;;
17598;SDS011;8918;52.092;5.232;2023-06-24T04:28:02;9.52;;;8.27;;
17598;SDS011;8918;52.092;5.232;2023-06-24T04:30:29;9.10;;;8.20;;
17598;SDS011;8918;52.092;5.232;2023-06-24T04:32:55;10.63;;;8.98;;
17598;SDS011;8918;52.092;5.232;2023-06-24T04:35:21;10.93;;;9.38;;
17598;SDS011;8918;52.092;5.232;2023-06-24T04:37:46;10.82;;;8.93;;
17598;SDS011;8918;52.092;5.232;2023-06-24T04:40:14;10.77;;;8.90;;
17598;SDS011;8918;52.092;5.232;2023-06-24T04:42:41;8.85;;;7.88;;
17598;SDS011;8918;52.092;5.232;2023-06-24T04:45:07;8.73;;;7.82;;
17598;SDS011;8918;52.092;5.232;2023-06-24T04:47:32;10.07;;;8.57;;
17598;SDS011;8918;52.092;5.232;2023-06-24T04:49:58;10.48;;;8.18;;
17598;SDS011;8918;52.092;5.232;2023-06-24T04:52:24;9.73;;;7.88;;
17598;SDS011;8918;52.092;5.232;2023-06-24T04:54:49;10.00;;;8.30;;
17598;SDS011;8918;52.092;5.232;2023-06-24T04:57:27;8.93;;;7.80;;
17598;SDS011;8918;52.092;5.232;2023-06-24T04:59:57;9.05;;;7.47;;
17598;SDS011;8918;52.092;5.232;2023-06-24T05:02:23;8.98;;;7.63;;
17598;SDS011;8918;52.092;5.232;2023-06-24T05:04:49;10.05;;;7.47;;
17598;SDS011;8918;52.092;5.232;2023-06-24T05:07:16;10.10;;;7.75;;
17598;SDS011;8918;52.092;5.232;2023-06-24T05:09:42;9.13;;;7.53;;
17598;SDS011;8918;52.092;5.232;2023-06-24T05:12:08;10.68;;;8.00;;
17598;SDS011;8918;52.092;5.232;2023-06-24T05:14:35;9.98;;;7.85;;
17598;SDS011;8918;52.092;5.232;2023-06-24T05:17:01;9.85;;;7.30;;
17598;SDS011;8918;52.092;5.232;2023-06-24T05:19:27;9.80;;;7.38;;
17598;SDS011;8918;52.092;5.232;2023-06-24T05:21:53;9.25;;;7.13;;
17598;SDS011;8918;52.092;5.232;2023-06-24T05:24:18;10.15;;;7.63;;
17598;SDS011;8918;52.092;5.232;2023-06-24T05:26:44;8.38;;;6.82;;
17598;SDS011;8918;52.092;5.232;2023-06-24T05:29:12;9.40;;;7.10;;
17598;SDS011;8918;52.092;5.232;2023-06-24T05:31:37;8.70;;;7.03;;
17598;SDS011;8918;52.092;5.232;2023-06-24T05:34:05;7.75;;;6.45;;
17598;SDS011;8918;52.092;5.232;2023-06-24T05:36:31;8.50;;;6.47;;
17598;SDS011;8918;52.092;5.232;2023-06-24T05:38:56;8.45;;;6.75;;
17598;SDS011;8918;52.092;5.232;2023-06-24T05:41:22;11.57;;;8.25;;
17598;SDS011;8918;52.092;5.232;2023-06-24T05:43:47;9.00;;;7.10;;
17598;SDS011;8918;52.092;5.232;2023-06-24T05:46:13;9.07;;;7.10;;
17598;SDS011;8918;52.092;5.232;2023-06-24T05:48:39;8.60;;;7.30;;
17598;SDS011;8918;52.092;5.232;2023-06-24T05:51:05;9.30;;;7.00;;
17598;SDS011;8918;52.092;5.232;2023-06-24T05:53:31;8.32;;;6.45;;
17598;SDS011;8918;52.092;5.232;2023-06-24T05:56:05;10.20;;;6.85;;
17598;SDS011;8918;52.092;5.232;2023-06-24T05:58:31;9.98;;;7.15;;
17598;SDS011;8918;52.092;5.232;2023-06-24T06:00:56;8.95;;;7.18;;
17598;SDS011;8918;52.092;5.232;2023-06-24T06:03:23;8.57;;;7.00;;
17598;SDS011;8918;52.092;5.232;2023-06-24T06:05:49;9.35;;;7.20;;
17598;SDS011;8918;52.092;5.232;2023-06-24T06:08:14;8.25;;;6.68;;
17598;SDS011;8918;52.092;5.232;2023-06-24T06:10:40;8.65;;;6.70;;
17598;SDS011;8918;52.092;5.232;2023-06-24T06:13:06;8.38;;;6.68;;
17598;SDS011;8918;52.092;5.232;2023-06-24T06:15:32;8.50;;;6.30;;
17598;SDS011;8918;52.092;5.232;2023-06-24T06:17:57;8.48;;;6.15;;
17598;SDS011;8918;52.092;5.232;2023-06-24T06:20:23;7.82;;;6.03;;
17598;SDS011;8918;52.092;5.232;2023-06-24T06:22:48;7.35;;;6.00;;
17598;SDS011;8918;52.092;5.232;2023-06-24T06:25:16;6.97;;;5.32;;
17598;SDS011;8918;52.092;5.232;2023-06-24T06:27:41;7.45;;;5.97;;
17598;SDS011;8918;52.092;5.232;2023-06-24T06:30:07;9.88;;;5.70;;
17598;SDS011;8918;52.092;5.232;2023-06-24T06:32:33;8.07;;;5.60;;
17598;SDS011;8918;52.092;5.232;2023-06-24T06:34:59;8.20;;;5.43;;
17598;SDS011;8918;52.092;5.232;2023-06-24T06:37:24;5.97;;;4.97;;
17598;SDS011;8918;52.092;5.232;2023-06-24T06:39:50;7.47;;;5.85;;
17598;SDS011;8918;52.092;5.232;2023-06-24T06:42:16;8.15;;;5.57;;
17598;SDS011;8918;52.092;5.232;2023-06-24T06:44:41;8.90;;;5.57;;
17598;SDS011;8918;52.092;5.232;2023-06-24T06:47:07;7.68;;;5.70;;
17598;SDS011;8918;52.092;5.232;2023-06-24T06:49:32;8.07;;;5.68;;
17598;SDS011;8918;52.092;5.232;2023-06-24T06:51:58;8.10;;;5.22;;
17598;SDS011;8918;52.092;5.232;2023-06-24T06:54:23;8.35;;;5.70;;
17598;SDS011;8918;52.092;5.232;2023-06-24T06:56:49;8.57;;;5.57;;
17598;SDS011;8918;52.092;5.232;2023-06-24T06:59:14;6.95;;;5.35;;
17598;SDS011;8918;52.092;5.232;2023-06-24T07:01:40;5.70;;;5.05;;
17598;SDS011;8918;52.092;5.232;2023-06-24T07:04:06;6.32;;;5.30;;
17598;SDS011;8918;52.092;5.232;2023-06-24T07:06:31;8.25;;;6.03;;
17598;SDS011;8918;52.092;5.232;2023-06-24T07:08:57;7.47;;;5.63;;
17598;SDS011;8918;52.092;5.232;2023-06-24T07:11:23;8.20;;;6.10;;
17598;SDS011;8918;52.092;5.232;2023-06-24T07:13:49;7.88;;;6.00;;
17598;SDS011;8918;52.092;5.232;2023-06-24T07:16:16;8.57;;;5.63;;
17598;SDS011;8918;52.092;5.232;2023-06-24T07:18:42;7.00;;;5.50;;
17598;SDS011;8918;52.092;5.232;2023-06-24T07:21:07;10.63;;;5.85;;
17598;SDS011;8918;52.092;5.232;2023-06-24T07:23:33;7.53;;;5.93;;
17598;SDS011;8918;52.092;5.232;2023-06-24T07:25:59;7.07;;;5.97;;
17598;SDS011;8918;52.092;5.232;2023-06-24T07:28:24;7.45;;;5.68;;
17598;SDS011;8918;52.092;5.232;2023-06-24T07:30:50;7.03;;;5.60;;
17598;SDS011;8918;52.092;5.232;2023-06-24T07:33:15;9.57;;;5.55;;
17598;SDS011;8918;52.092;5.232;2023-06-24T07:35:41;7.07;;;5.53;;
17598;SDS011;8918;52.092;5.232;2023-06-24T07:38:07;7.82;;;5.30;;
17598;SDS011;8918;52.092;5.232;2023-06-24T07:40:32;6.35;;;5.50;;
17598;SDS011;8918;52.092;5.232;2023-06-24T07:42:58;7.60;;;5.13;;
17598;SDS011;8918;52.092;5.232;2023-06-24T07:45:23;6.90;;;5.50;;
17598;SDS011;8918;52.092;5.232;2023-06-24T07:47:50;5.65;;;5.05;;
17598;SDS011;8918;52.092;5.232;2023-06-24T07:50:16;7.30;;;5.40;;
17598;SDS011;8918;52.092;5.232;2023-06-24T07:52:41;9.25;;;6.25;;
17598;SDS011;8918;52.092;5.232;2023-06-24T07:55:07;8.25;;;5.63;;
17598;SDS011;8918;52.092;5.232;2023-06-24T07:57:33;8.32;;;5.50;;
17598;SDS011;8918;52.092;5.232;2023-06-24T07:59:58;7.20;;;5.25;;
17598;SDS011;8918;52.092;5.232;2023-06-24T08:02:24;9.20;;;5.28;;
17598;SDS011;8918;52.092;5.232;2023-06-24T08:04:50;6.90;;;5.28;;
17598;SDS011;8918;52.092;5.232;2023-06-24T08:07:15;6.15;;;4.80;;
17598;SDS011;8918;52.092;5.232;2023-06-24T08:09:41;5.47;;;4.78;;
17598;SDS011;8918;52.092;5.232;2023-06-24T08:12:07;7.50;;;5.18;;
17598;SDS011;8918;52.092;5.232;2023-06-24T08:14:33;7.95;;;5.00;;
17598;SDS011;8918;52.092;5.232;2023-06-24T08:17:00;7.78;;;5.65;;
17598;SDS011;8918;52.092;5.232;2023-06-24T08:19:25;6.97;;;5.65;;
17598;SDS011;8918;52.092;5.232;2023-06-24T08:21:51;7.90;;;5.93;;
17598;SDS011;8918;52.092;5.232;2023-06-24T08:24:17;8.57;;;6.30;;
17598;SDS011;8918;52.092;5.232;2023-06-24T08:26:42;7.30;;;6.15;;
17598;SDS011;8918;52.092;5.232;2023-06-24T08:29:08;10.20;;;6.70;;
17598;SDS011;8918;52.092;5.232;2023-06-24T08:31:33;9.18;;;6.38;;
17598;SDS011;8918;52.092;5.232;2023-06-24T08:33:59;10.20;;;6.30;;
17598;SDS011;8918;52.092;5.232;2023-06-24T08:36:27;9.00;;;6.47;;
17598;SDS011;8918;52.092;5.232;2023-06-24T08:38:54;9.05;;;6.43;;
17598;SDS011;8918;52.092;5.232;2023-06-24T08:41:20;6.75;;;5.93;;
17598;SDS011;8918;52.092;5.232;2023-06-24T08:43:46;8.10;;;5.88;;
17598;SDS011;8918;52.092;5.232;2023-06-24T08:46:12;7.22;;;5.78;;
17598;SDS011;8918;52.092;5.232;2023-06-24T08:48:41;6.93;;;5.50;;
17598;SDS011;8918;52.092;5.232;2023-06-24T08:51:09;7.72;;;5.75;;
17598;SDS011;8918;52.092;5.232;2023-06-24T08:53:38;12.95;;;6.80;;
17598;SDS011;8918;52.092;5.232;2023-06-24T08:56:06;7.13;;;6.10;;
17598;SDS011;8918;52.092;5.232;2023-06-24T08:58:33;7.18;;;6.10;;
17598;SDS011;8918;52.092;5.232;2023-06-24T09:00:59;9.82;;;6.60;;
17598;SDS011;8918;52.092;5.232;2023-06-24T09:03:25;6.18;;;5.03;;
17598;SDS011;8918;52.092;5.232;2023-06-24T09:05:51;9.30;;;6.05;;
17598;SDS011;8918;52.092;5.232;2023-06-24T09:08:16;8.05;;;6.22;;
17598;SDS011;8918;52.092;5.232;2023-06-24T09:10:43;7.65;;;6.13;;
17598;SDS011;8918;52.092;5.232;2023-06-24T09:13:09;7.68;;;6.15;;
17598;SDS011;8918;52.092;5.232;2023-06-24T09:15:35;8.60;;;6.43;;
17598;SDS011;8918;52.092;5.232;2023-06-24T09:18:02;9.32;;;7.05;;
17598;SDS011;8918;52.092;5.232;2023-06-24T09:20:29;8.65;;;6.15;;
17598;SDS011;8918;52.092;5.232;2023-06-24T09:22:59;6.90;;;5.28;;
17598;SDS011;8918;52.092;5.232;2023-06-24T09:25:26;7.72;;;5.85;;
17598;SDS011;8918;52.092;5.232;2023-06-24T09:27:52;9.10;;;6.70;;
17598;SDS011;8918;52.092;5.232;2023-06-24T09:30:18;8.05;;;6.47;;
17598;SDS011;8918;52.092;5.232;2023-06-24T09:32:45;7.93;;;6.68;;
17598;SDS011;8918;52.092;5.232;2023-06-24T09:35:12;8.93;;;6.60;;
17598;SDS011;8918;52.092;5.232;2023-06-24T09:37:38;8.98;;;7.28;;
17598;SDS011;8918;52.092;5.232;2023-06-24T09:40:04;11.60;;;7.50;;
17598;SDS011;8918;52.092;5.232;2023-06-24T09:42:31;7.22;;;6.13;;
17598;SDS011;8918;52.092;5.232;2023-06-24T09:44:57;8.90;;;7.40;;
17598;SDS011;8918;52.092;5.232;2023-06-24T09:47:23;10.07;;;7.47;;
17598;SDS011;8918;52.092;5.232;2023-06-24T09:49:52;11.27;;;8.00;;
17598;SDS011;8918;52.092;5.232;2023-06-24T09:52:18;8.65;;;7.07;;
17598;SDS011;8918;52.092;5.232;2023-06-24T09:54:46;10.25;;;6.57;;
17598;SDS011;8918;52.092;5.232;2023-06-24T09:57:14;10.73;;;7.30;;
17598;SDS011;8918;52.092;5.232;2023-06-24T09:59:43;7.45;;;5.97;;
17598;SDS011;8918;52.092;5.232;2023-06-24T10:02:11;11.05;;;8.23;;
17598;SDS011;8918;52.092;5.232;2023-06-24T10:04:39;7.78;;;6.40;;
17598;SDS011;8918;52.092;5.232;2023-06-24T10:07:05;7.15;;;5.72;;
17598;SDS011;8918;52.092;5.232;2023-06-24T10:09:31;8.40;;;6.15;;
17598;SDS011;8918;52.092;5.232;2023-06-24T10:11:56;7.60;;;6.80;;
17598;SDS011;8918;52.092;5.232;2023-06-24T10:14:22;9.13;;;7.18;;
17598;SDS011;8918;52.092;5.232;2023-06-24T10:16:48;9.85;;;6.85;;
17598;SDS011;8918;52.092;5.232;2023-06-24T10:19:20;8.50;;;6.82;;
17598;SDS011;8918;52.092;5.232;2023-06-24T10:21:58;10.95;;;7.95;;
17598;SDS011;8918;52.092;5.232;2023-06-24T10:24:34;8.52;;;7.38;;
17598;SDS011;8918;52.092;5.232;2023-06-24T10:27:04;10.98;;;6.35;;
17598;SDS011;8918;52.092;5.232;2023-06-24T10:29:34;7.03;;;5.90;;
17598;SDS011;8918;52.092;5.232;2023-06-24T10:32:06;9.90;;;7.15;;
17598;SDS011;8918;52.092;5.232;2023-06-24T10:34:46;9.45;;;7.30;;
17598;SDS011;8918;52.092;5.232;2023-06-24T10:37:19;9.23;;;6.68;;
17598;SDS011;8918;52.092;5.232;2023-06-24T10:47:34;10.02;;;7.50;;
17598;SDS011;8918;52.092;5.232;2023-06-24T10:50:00;8.23;;;6.63;;
17598;SDS011;8918;52.092;5.232;2023-06-24T10:52:26;12.75;;;7.15;;
17598;SDS011;8918;52.092;5.232;2023-06-24T10:54:52;9.57;;;7.53;;
17598;SDS011;8918;52.092;5.232;2023-06-24T10:57:22;9.07;;;6.15;;
17598;SDS011;8918;52.092;5.232;2023-06-24T10:59:49;9.30;;;7.60;;
17598;SDS011;8918;52.092;5.232;2023-06-24T11:02:19;9.13;;;7.68;;
17598;SDS011;8918;52.092;5.232;2023-06-24T11:04:46;10.75;;;7.00;;
17598;SDS011;8918;52.092;5.232;2023-06-24T11:07:19;10.25;;;8.57;;
17598;SDS011;8918;52.092;5.232;2023-06-24T11:09:49;9.30;;;7.20;;
17598;SDS011;8918;52.092;5.232;2023-06-24T11:12:16;9.68;;;7.40;;
17598;SDS011;8918;52.092;5.232;2023-06-24T11:14:42;10.48;;;8.75;;
17598;SDS011;8918;52.092;5.232;2023-06-24T11:17:08;12.35;;;8.27;;
17598;SDS011;8918;52.092;5.232;2023-06-24T11:19:34;13.00;;;9.70;;
17598;SDS011;8918;52.092;5.232;2023-06-24T11:22:04;10.65;;;8.75;;
17598;SDS011;8918;52.092;5.232;2023-06-24T11:24:31;9.38;;;7.57;;
17598;SDS011;8918;52.092;5.232;2023-06-24T11:26:57;8.30;;;6.47;;
17598;SDS011;8918;52.092;5.232;2023-06-24T11:29:23;9.18;;;7.18;;
17598;SDS011;8918;52.092;5.232;2023-06-24T11:31:49;10.68;;;6.63;;
17598;SDS011;8918;52.092;5.232;2023-06-24T11:34:15;7.35;;;6.43;;
17598;SDS011;8918;52.092;5.232;2023-06-24T11:36:42;11.90;;;8.43;;
17598;SDS011;8918;52.092;5.232;2023-06-24T11:39:07;6.65;;;5.95;;
17598;SDS011;8918;52.092;5.232;2023-06-24T11:41:33;11.23;;;8.35;;
17598;SDS011;8918;52.092;5.232;2023-06-24T11:43:59;10.15;;;8.70;;
17598;SDS011;8918;52.092;5.232;2023-06-24T11:46:28;8.75;;;7.28;;
17598;SDS011;8918;52.092;5.232;2023-06-24T11:49:03;9.38;;;7.13;;
17598;SDS011;8918;52.092;5.232;2023-06-24T11:51:29;8.68;;;6.40;;
17598;SDS011;8918;52.092;5.232;2023-06-24T11:53:58;7.05;;;6.35;;
17598;SDS011;8918;52.092;5.232;2023-06-24T11:56:34;7.07;;;6.00;;
17598;SDS011;8918;52.092;5.232;2023-06-24T11:59:07;7.72;;;5.88;;
17598;SDS011;8918;52.092;5.232;2023-06-24T12:01:43;8.13;;;5.75;;
17598;SDS011;8918;52.092;5.232;2023-06-24T12:04:13;6.15;;;5.32;;
17598;SDS011;8918;52.092;5.232;2023-06-24T12:06:39;8.93;;;6.20;;
17598;SDS011;8918;52.092;5.232;2023-06-24T12:09:06;7.93;;;5.45;;
17598;SDS011;8918;52.092;5.232;2023-06-24T12:11:33;9.38;;;6.28;;
17598;SDS011;8918;52.092;5.232;2023-06-24T12:13:58;5.80;;;5.15;;
17598;SDS011;8918;52.092;5.232;2023-06-24T12:16:24;5.35;;;4.55;;
17598;SDS011;8918;52.092;5.232;2023-06-24T12:18:51;6.80;;;5.10;;
17598;SDS011;8918;52.092;5.232;2023-06-24T12:21:17;5.13;;;4.63;;
17598;SDS011;8918;52.092;5.232;2023-06-24T12:23:43;7.47;;;5.22;;
17598;SDS011;8918;52.092;5.232;2023-06-24T12:26:09;7.05;;;5.97;;
17598;SDS011;8918;52.092;5.232;2023-06-24T12:28:35;6.35;;;5.13;;
17598;SDS011;8918;52.092;5.232;2023-06-24T12:31:00;6.97;;;5.38;;
17598;SDS011;8918;52.092;5.232;2023-06-24T12:33:26;6.85;;;4.78;;
17598;SDS011;8918;52.092;5.232;2023-06-24T12:35:51;7.07;;;5.57;;
17598;SDS011;8918;52.092;5.232;2023-06-24T12:38:17;5.32;;;4.63;;
17598;SDS011;8918;52.092;5.232;2023-06-24T12:40:43;6.57;;;4.75;;
17598;SDS011;8918;52.092;5.232;2023-06-24T12:43:10;6.15;;;5.07;;
17598;SDS011;8918;52.092;5.232;2023-06-24T12:45:35;8.25;;;6.13;;
17598;SDS011;8918;52.092;5.232;2023-06-24T12:48:02;6.10;;;5.50;;
17598;SDS011;8918;52.092;5.232;2023-06-24T12:50:28;6.35;;;5.75;;
17598;SDS011;8918;52.092;5.232;2023-06-24T12:52:56;6.40;;;5.63;;
17598;SDS011;8918;52.092;5.232;2023-06-24T12:55:22;8.45;;;5.63;;
17598;SDS011;8918;52.092;5.232;2023-06-24T12:57:48;5.90;;;4.70;;
17598;SDS011;8918;52.092;5.232;2023-06-24T13:00:13;5.72;;;4.90;;
17598;SDS011;8918;52.092;5.232;2023-06-24T13:02:40;7.72;;;4.72;;
17598;SDS011;8918;52.092;5.232;2023-06-24T13:05:05;6.22;;;5.10;;
17598;SDS011;8918;52.092;5.232;2023-06-24T13:07:31;5.90;;;4.93;;
17598;SDS011;8918;52.092;5.232;2023-06-24T13:09:57;6.80;;;4.75;;
17598;SDS011;8918;52.092;5.232;2023-06-24T13:12:24;7.68;;;5.47;;
17598;SDS011;8918;52.092;5.232;2023-06-24T13:14:50;5.43;;;4.65;;
17598;SDS011;8918;52.092;5.232;2023-06-24T13:17:15;6.13;;;5.13;;
17598;SDS011;8918;52.092;5.232;2023-06-24T13:19:41;5.90;;;5.22;;
17598;SDS011;8918;52.092;5.232;2023-06-24T13:22:07;6.47;;;5.10;;
17598;SDS011;8918;52.092;5.232;2023-06-24T13:24:32;6.40;;;4.88;;
17598;SDS011;8918;52.092;5.232;2023-06-24T13:26:58;5.18;;;4.38;;
17598;SDS011;8918;52.092;5.232;2023-06-24T13:29:23;7.38;;;5.00;;
17598;SDS011;8918;52.092;5.232;2023-06-24T13:31:49;6.30;;;5.03;;
17598;SDS011;8918;52.092;5.232;2023-06-24T13:34:14;7.78;;;4.78;;
17598;SDS011;8918;52.092;5.232;2023-06-24T13:36:40;7.82;;;5.55;;
17598;SDS011;8918;52.092;5.232;2023-06-24T13:39:06;7.13;;;5.03;;
17598;SDS011;8918;52.092;5.232;2023-06-24T13:41:33;7.43;;;5.70;;
17598;SDS011;8918;52.092;5.232;2023-06-24T13:44:00;5.20;;;4.68;;
17598;SDS011;8918;52.092;5.232;2023-06-24T13:46:27;7.05;;;5.13;;
17598;SDS011;8918;52.092;5.232;2023-06-24T13:48:53;7.35;;;5.30;;
17598;SDS011;8918;52.092;5.232;2023-06-24T13:51:19;8.10;;;4.72;;
17598;SDS011;8918;52.092;5.232;2023-06-24T13:53:46;6.43;;;4.47;;
17598;SDS011;8918;52.092;5.232;2023-06-24T13:56:16;5.82;;;4.57;;
17598;SDS011;8918;52.092;5.232;2023-06-24T13:58:42;8.02;;;4.60;;
17598;SDS011;8918;52.092;5.232;2023-06-24T14:01:08;5.32;;;4.50;;
17598;SDS011;8918;52.092;5.232;2023-06-24T14:03:34;6.82;;;5.40;;
17598;SDS011;8918;52.092;5.232;2023-06-24T14:06:00;5.63;;;4.45;;
17598;SDS011;8918;52.092;5.232;2023-06-24T14:08:26;7.18;;;5.28;;
17598;SDS011;8918;52.092;5.232;2023-06-24T14:10:53;6.90;;;4.95;;
17598;SDS011;8918;52.092;5.232;2023-06-24T14:13:19;5.78;;;4.75;;
17598;SDS011;8918;52.092;5.232;2023-06-24T14:15:45;6.82;;;4.30;;
17598;SDS011;8918;52.092;5.232;2023-06-24T14:18:11;6.47;;;5.07;;
17598;SDS011;8918;52.092;5.232;2023-06-24T14:20:36;5.55;;;4.40;;
17598;SDS011;8918;52.092;5.232;2023-06-24T14:23:02;6.22;;;4.90;;
17598;SDS011;8918;52.092;5.232;2023-06-24T14:25:29;7.57;;;5.00;;
17598;SDS011;8918;52.092;5.232;2023-06-24T14:27:54;5.00;;;4.50;;
17598;SDS011;8918;52.092;5.232;2023-06-24T14:30:20;6.70;;;4.68;;
17598;SDS011;8918;52.092;5.232;2023-06-24T14:32:46;5.03;;;4.30;;
17598;SDS011;8918;52.092;5.232;2023-06-24T14:35:11;5.78;;;4.43;;
17598;SDS011;8918;52.092;5.232;2023-06-24T14:37:37;5.38;;;4.50;;
17598;SDS011;8918;52.092;5.232;2023-06-24T14:40:03;5.22;;;4.50;;
17598;SDS011;8918;52.092;5.232;2023-06-24T14:42:29;6.90;;;4.75;;
17598;SDS011;8918;52.092;5.232;2023-06-24T14:44:54;5.32;;;4.35;;
17598;SDS011;8918;52.092;5.232;2023-06-24T14:47:20;5.30;;;4.78;;
17598;SDS011;8918;52.092;5.232;2023-06-24T14:49:45;5.50;;;4.60;;
17598;SDS011;8918;52.092;5.232;2023-06-24T14:52:11;6.90;;;4.80;;
17598;SDS011;8918;52.092;5.232;2023-06-24T14:54:37;7.32;;;4.63;;
17598;SDS011;8918;52.092;5.232;2023-06-24T14:57:02;4.72;;;4.20;;
17598;SDS011;8918;52.092;5.232;2023-06-24T14:59:28;4.60;;;4.20;;
17598;SDS011;8918;52.092;5.232;2023-06-24T15:01:54;4.93;;;4.30;;
17598;SDS011;8918;52.092;5.232;2023-06-24T15:04:19;6.53;;;4.40;;
17598;SDS011;8918;52.092;5.232;2023-06-24T15:06:45;8.77;;;5.15;;
17598;SDS011;8918;52.092;5.232;2023-06-24T15:09:11;5.43;;;4.50;;
17598;SDS011;8918;52.092;5.232;2023-06-24T15:11:36;5.75;;;4.40;;
17598;SDS011;8918;52.092;5.232;2023-06-24T15:14:02;5.18;;;4.13;;
17598;SDS011;8918;52.092;5.232;2023-06-24T15:16:27;5.22;;;4.60;;